Time,TemperatureF,DewpointF,PressureIn,WindDirection,WindDirectionDegrees,WindSpeedMPH,WindSpeedGustMPH,Humidity,HourlyPrecipIn,Conditions,Clouds,dailyrainin,SoftwareType,DateUTC
2013-01-10 00:04:00,29.9,27.6,30.44,SE,140,4.0,5.0,91,0.00,,,0.00,Wunderground v.1.15,2013-01-10 06:04:00,
2013-01-10 00:09:00,30.3,28.0,30.44,SSE,148,5.0,5.0,91,0.00,,,0.00,Wunderground v.1.15,2013-01-10 06:09:00,
2013-01-10 00:15:00,30.5,27.9,30.43,SE,132,2.0,4.0,90,0.00,,,0.00,Wunderground v.1.15,2013-01-10 06:15:00,
2013-01-10 00:21:00,30.7,28.1,30.43,SSE,150,5.0,5.0,90,0.00,,,0.00,Wunderground v.1.15,2013-01-10 06:21:00,
2013-01-10 00:26:00,30.7,27.8,30.43,SE,146,5.0,5.0,89,0.00,,,0.00,Wunderground v.1.15,2013-01-10 06:26:00,
2013-01-10 00:32:00,30.1,27.0,30.43,SE,132,5.0,5.0,88,0.00,,,0.00,Wunderground v.1.15,2013-01-10 06:32:00,
2013-01-10 00:38:00,29.6,26.5,30.43,SE,138,5.0,5.0,88,0.00,,,0.00,Wunderground v.1.15,2013-01-10 06:38:00,
2013-01-10 00:43:00,29.4,26.6,30.43,SE,132,1.0,4.0,89,0.00,,,0.00,Wunderground v.1.15,2013-01-10 06:43:00,
2013-01-10 00:48:00,29.5,26.7,30.43,SE,142,2.0,5.0,89,0.00,,,0.00,Wunderground v.1.15,2013-01-10 06:48:00,
2013-01-10 00:54:00,29.6,26.8,30.43,SE,146,4.0,4.0,89,0.00,,,0.00,Wunderground v.1.15,2013-01-10 06:54:00,
2013-01-10 01:00:00,29.4,26.3,30.43,SE,140,4.0,4.0,88,0.00,,,0.00,Wunderground v.1.15,2013-01-10 07:00:00,
2013-01-10 01:06:00,29.4,26.6,30.43,SE,134,0.0,4.0,89,0.00,,,0.00,Wunderground v.1.15,2013-01-10 07:06:00,
2013-01-10 01:13:00,29.6,26.8,30.43,SE,134,4.0,4.0,89,0.00,,,0.00,Wunderground v.1.15,2013-01-10 07:13:00,
2013-01-10 01:19:00,30.0,27.4,30.42,SE,136,2.0,4.0,90,0.00,,,0.00,Wunderground v.1.15,2013-01-10 07:19:00,
2013-01-10 01:24:00,30.3,27.4,30.42,SE,138,2.0,4.0,89,0.00,,,0.00,Wunderground v.1.15,2013-01-10 07:24:00,
2013-01-10 01:30:00,30.6,27.7,30.42,SE,142,4.0,4.0,89,0.00,,,0.00,Wunderground v.1.15,2013-01-10 07:30:00,
2013-01-10 01:35:00,30.7,27.6,30.42,SE,143,0.0,3.0,88,0.00,,,0.00,Wunderground v.1.15,2013-01-10 07:35:00,
2013-01-10 01:40:00,30.8,27.7,30.43,SE,138,0.0,3.0,88,0.00,,,0.00,Wunderground v.1.15,2013-01-10 07:40:00,
2013-01-10 01:46:00,30.8,27.7,30.42,SE,138,1.0,1.0,88,0.00,,,0.00,Wunderground v.1.15,2013-01-10 07:46:00,
2013-01-10 01:52:00,30.8,27.7,30.42,SE,138,0.0,0.0,88,0.00,,,0.00,Wunderground v.1.15,2013-01-10 07:52:00,
2013-01-10 01:58:00,30.8,27.7,30.42,SE,138,0.0,0.0,88,0.00,,,0.00,Wunderground v.1.15,2013-01-10 07:58:00,
2013-01-10 02:03:00,30.8,27.7,30.42,SE,138,1.0,2.0,88,0.00,,,0.00,Wunderground v.1.15,2013-01-10 08:03:00,
2013-01-10 02:08:00,30.4,27.0,30.42,SE,138,1.0,2.0,87,0.00,,,0.00,Wunderground v.1.15,2013-01-10 08:08:00,
2013-01-10 02:13:00,29.9,26.5,30.42,SE,138,1.0,2.0,87,0.00,,,0.00,Wunderground v.1.15,2013-01-10 08:13:00,
2013-01-10 02:18:00,29.6,26.5,30.42,SE,138,1.0,2.0,88,0.00,,,0.00,Wunderground v.1.15,2013-01-10 08:18:00,
2013-01-10 02:23:00,29.5,26.4,30.42,SE,137,2.0,2.0,88,0.00,,,0.00,Wunderground v.1.15,2013-01-10 08:23:00,
2013-01-10 02:28:00,29.4,26.6,30.43,SE,137,1.0,2.0,89,0.00,,,0.00,Wunderground v.1.15,2013-01-10 08:28:00,
2013-01-10 02:33:00,29.5,26.9,30.42,SE,137,0.0,1.0,90,0.00,,,0.00,Wunderground v.1.15,2013-01-10 08:33:00,
2013-01-10 02:38:00,29.7,27.1,30.42,SE,137,0.0,1.0,90,0.00,,,0.00,Wunderground v.1.15,2013-01-10 08:38:00,
2013-01-10 02:43:00,29.9,27.3,30.42,SE,137,0.0,1.0,90,0.00,,,0.00,Wunderground v.1.15,2013-01-10 08:43:00,
2013-01-10 02:48:00,30.2,27.6,30.41,SE,137,1.0,2.0,90,0.00,,,0.00,Wunderground v.1.15,2013-01-10 08:48:00,
2013-01-10 02:53:00,30.4,27.8,30.41,SE,137,0.0,1.0,90,0.00,,,0.00,Wunderground v.1.15,2013-01-10 08:53:00,
2013-01-10 02:58:00,30.7,28.1,30.41,SE,137,0.0,2.0,90,0.00,,,0.00,Wunderground v.1.15,2013-01-10 08:58:00,
2013-01-10 03:03:00,30.8,28.2,30.40,SE,130,0.0,1.0,90,0.00,,,0.00,Wunderground v.1.15,2013-01-10 09:03:00,
2013-01-10 03:08:00,30.8,28.2,30.40,ESE,117,1.0,2.0,90,0.00,,,0.00,Wunderground v.1.15,2013-01-10 09:08:00,
2013-01-10 03:13:00,30.8,28.2,30.40,SE,132,0.0,1.0,90,0.00,,,0.00,Wunderground v.1.15,2013-01-10 09:13:00,
2013-01-10 03:18:00,30.9,28.3,30.40,SSE,151,0.0,1.0,90,0.00,,,0.00,Wunderground v.1.15,2013-01-10 09:18:00,
2013-01-10 03:23:00,30.9,28.3,30.40,ESE,122,0.0,0.0,90,0.00,,,0.00,Wunderground v.1.15,2013-01-10 09:23:00,
2013-01-10 03:28:00,30.9,28.3,30.40,SSE,155,0.0,0.0,90,0.00,,,0.00,Wunderground v.1.15,2013-01-10 09:28:00,
2013-01-10 03:33:00,30.9,28.3,30.40,SE,146,0.0,0.0,90,0.00,,,0.00,Wunderground v.1.15,2013-01-10 09:33:00,
2013-01-10 03:42:00,30.8,28.2,30.40,SSE,155,0.0,0.0,90,0.00,,,0.00,Wunderground v.1.15,2013-01-10 09:42:00,
2013-01-10 03:47:00,30.7,27.8,30.40,SSE,151,0.0,0.0,89,0.00,,,0.00,Wunderground v.1.15,2013-01-10 09:47:00,
2013-01-10 03:53:00,30.5,27.6,30.40,SSE,148,0.0,0.0,89,0.00,,,0.00,Wunderground v.1.15,2013-01-10 09:53:00,
2013-01-10 03:58:00,30.3,27.4,30.40,SE,146,0.0,0.0,89,0.00,,,0.00,Wunderground v.1.15,2013-01-10 09:58:00,
2013-01-10 04:04:00,30.0,27.2,30.39,SE,146,0.0,0.0,89,0.00,,,0.00,Wunderground v.1.15,2013-01-10 10:04:00,
2013-01-10 04:15:00,29.6,27.0,30.39,SSE,153,0.0,0.0,90,0.00,,,0.00,Wunderground v.1.15,2013-01-10 10:15:00,
2013-01-10 04:20:00,29.2,26.4,30.39,SSE,157,0.0,0.0,89,0.00,,,0.00,Wunderground v.1.15,2013-01-10 10:20:00,
2013-01-10 04:25:00,28.7,25.9,30.39,SE,146,2.0,4.0,89,0.00,,,0.00,Wunderground v.1.15,2013-01-10 10:25:00,
2013-01-10 04:30:00,28.2,25.6,30.38,SSE,149,2.0,5.0,90,0.00,,,0.00,Wunderground v.1.15,2013-01-10 10:30:00,
2013-01-10 04:35:00,28.0,25.4,30.38,SSE,149,2.0,2.0,90,0.00,,,0.00,Wunderground v.1.15,2013-01-10 10:35:00,
2013-01-10 04:40:00,28.1,25.8,30.38,SSE,149,4.0,4.0,91,0.00,,,0.00,Wunderground v.1.15,2013-01-10 10:40:00,
2013-01-10 04:45:00,28.6,26.6,30.38,SSE,150,4.0,5.0,92,0.00,,,0.00,Wunderground v.1.15,2013-01-10 10:45:00,
2013-01-10 04:50:00,29.1,27.1,30.38,SSE,150,4.0,5.0,92,0.00,,,0.00,Wunderground v.1.15,2013-01-10 10:50:00,
2013-01-10 04:55:00,29.3,27.3,30.38,SE,144,4.0,6.0,92,0.00,,,0.00,Wunderground v.1.15,2013-01-10 10:55:00,
2013-01-10 05:00:00,29.3,27.3,30.38,SE,144,4.0,4.0,92,0.00,,,0.00,Wunderground v.1.15,2013-01-10 11:00:00,
2013-01-10 05:05:00,29.9,27.6,30.38,SSE,155,5.0,6.0,91,0.00,,,0.00,Wunderground v.1.15,2013-01-10 11:05:00,
2013-01-10 05:10:00,30.2,27.6,30.37,SE,146,5.0,7.0,90,0.00,,,0.00,Wunderground v.1.15,2013-01-10 11:10:00,
2013-01-10 05:15:00,30.3,27.7,30.37,SE,137,4.0,6.0,90,0.00,,,0.00,Wunderground v.1.15,2013-01-10 11:15:00,
2013-01-10 05:20:00,30.5,27.9,30.37,SE,146,1.0,6.0,90,0.00,,,0.00,Wunderground v.1.15,2013-01-10 11:20:00,
2013-01-10 05:25:00,30.6,28.0,30.37,SE,144,5.0,6.0,90,0.00,,,0.00,Wunderground v.1.15,2013-01-10 11:25:00,
2013-01-10 05:30:00,30.8,27.9,30.36,SE,140,5.0,7.0,89,0.00,,,0.00,Wunderground v.1.15,2013-01-10 11:30:00,
2013-01-10 05:35:00,30.9,28.0,30.36,SSE,157,5.0,7.0,89,0.00,,,0.00,Wunderground v.1.15,2013-01-10 11:35:00,
2013-01-10 05:41:00,31.1,28.2,30.36,SSE,150,6.0,7.0,89,0.00,,,0.00,Wunderground v.1.15,2013-01-10 11:41:00,
2013-01-10 05:46:00,31.3,28.2,30.36,SE,138,6.0,8.0,88,0.00,,,0.00,Wunderground v.1.15,2013-01-10 11:46:00,
2013-01-10 05:51:00,31.4,28.3,30.36,SSE,152,5.0,8.0,88,0.00,,,0.00,Wunderground v.1.15,2013-01-10 11:51:00,
2013-01-10 05:56:00,31.4,28.3,30.36,SE,146,4.0,5.0,88,0.00,,,0.00,Wunderground v.1.15,2013-01-10 11:56:00,
2013-01-10 06:03:00,31.4,28.3,30.36,SE,138,2.0,2.0,88,0.00,,,0.00,Wunderground v.1.15,2013-01-10 12:03:00,
2013-01-10 06:14:00,31.2,28.1,30.36,SE,145,4.0,4.0,88,0.00,,,0.00,Wunderground v.1.15,2013-01-10 12:14:00,
2013-01-10 06:19:00,31.1,28.0,30.36,SSE,148,4.0,6.0,88,0.00,,,0.00,Wunderground v.1.15,2013-01-10 12:19:00,
2013-01-10 06:24:00,30.9,27.8,30.36,SSE,153,4.0,6.0,88,0.00,,,0.00,Wunderground v.1.15,2013-01-10 12:24:00,
2013-01-10 06:29:00,31.0,28.1,30.36,SSE,150,4.0,6.0,89,0.00,,,0.00,Wunderground v.1.15,2013-01-10 12:29:00,
2013-01-10 06:34:00,31.3,28.4,30.36,SE,139,2.0,6.0,89,0.00,,,0.00,Wunderground v.1.15,2013-01-10 12:34:00,
2013-01-10 06:39:00,31.5,28.4,30.36,SE,126,2.0,6.0,88,0.00,,,0.00,Wunderground v.1.15,2013-01-10 12:39:00,
2013-01-10 06:44:00,31.7,28.3,30.35,SE,134,1.0,2.0,87,0.00,,,0.00,Wunderground v.1.15,2013-01-10 12:44:00,
2013-01-10 06:49:00,31.7,28.3,30.35,SE,138,0.0,4.0,87,0.00,,,0.00,Wunderground v.1.15,2013-01-10 12:49:00,
2013-01-10 06:54:00,31.7,28.0,30.35,SE,139,1.0,2.0,86,0.00,,,0.00,Wunderground v.1.15,2013-01-10 12:54:00,
2013-01-10 06:59:00,31.7,28.0,30.35,SE,139,1.0,2.0,86,0.00,,,0.00,Wunderground v.1.15,2013-01-10 12:59:00,
2013-01-10 07:04:00,31.7,28.0,30.34,SE,146,0.0,2.0,86,0.00,,,0.00,Wunderground v.1.15,2013-01-10 13:04:00,
2013-01-10 07:09:00,31.6,28.2,30.34,SE,142,2.0,2.0,87,0.00,,,0.00,Wunderground v.1.15,2013-01-10 13:09:00,
2013-01-10 07:14:00,31.6,28.2,30.34,ESE,121,1.0,5.0,87,0.00,,,0.00,Wunderground v.1.15,2013-01-10 13:14:00,
2013-01-10 07:19:00,31.7,28.3,30.34,SSE,159,2.0,5.0,87,0.00,,,0.00,Wunderground v.1.15,2013-01-10 13:19:00,
2013-01-10 07:24:00,31.9,28.5,30.34,SE,138,2.0,4.0,87,0.00,,,0.00,Wunderground v.1.15,2013-01-10 13:24:00,
2013-01-10 07:30:00,32.0,28.6,30.34,ESE,117,2.0,4.0,87,0.00,,,0.00,Wunderground v.1.15,2013-01-10 13:30:00,
2013-01-10 07:35:00,32.2,28.5,30.34,ESE,118,1.0,2.0,86,0.00,,,0.00,Wunderground v.1.15,2013-01-10 13:35:00,
2013-01-10 07:40:00,32.2,28.5,30.34,ESE,118,0.0,4.0,86,0.00,,,0.00,Wunderground v.1.15,2013-01-10 13:40:00,
2013-01-10 07:45:00,32.2,28.5,30.34,ESE,122,0.0,2.0,86,0.00,,,0.00,Wunderground v.1.15,2013-01-10 13:45:00,
2013-01-10 07:50:00,32.2,28.5,30.33,ESE,121,1.0,2.0,86,0.00,,,0.00,Wunderground v.1.15,2013-01-10 13:50:00,
2013-01-10 07:55:00,32.2,28.5,30.33,ESE,119,0.0,2.0,86,0.00,,,0.00,Wunderground v.1.15,2013-01-10 13:55:00,
2013-01-10 08:00:00,32.2,28.5,30.33,ESE,121,1.0,2.0,86,0.00,,,0.00,Wunderground v.1.15,2013-01-10 14:00:00,
2013-01-10 08:05:00,32.3,28.6,30.33,ESE,109,2.0,4.0,86,0.00,,,0.00,Wunderground v.1.15,2013-01-10 14:05:00,
2013-01-10 08:10:00,32.4,28.4,30.33,ESE,107,1.0,2.0,85,0.00,,,0.00,Wunderground v.1.15,2013-01-10 14:10:00,
2013-01-10 08:15:00,32.4,28.4,30.33,ESE,106,1.0,2.0,85,0.00,,,0.00,Wunderground v.1.15,2013-01-10 14:15:00,
2013-01-10 08:20:00,32.4,28.4,30.33,East,96,1.0,2.0,85,0.00,,,0.00,Wunderground v.1.15,2013-01-10 14:20:00,
2013-01-10 08:25:00,32.4,28.4,30.32,East,94,1.0,2.0,85,0.00,,,0.00,Wunderground v.1.15,2013-01-10 14:25:00,
2013-01-10 08:30:00,32.5,28.5,30.32,East,89,2.0,4.0,85,0.00,,,0.00,Wunderground v.1.15,2013-01-10 14:30:00,
2013-01-10 08:35:00,32.6,28.6,30.31,East,86,2.0,5.0,85,0.00,,,0.00,Wunderground v.1.15,2013-01-10 14:35:00,
2013-01-10 08:40:00,32.6,28.3,30.31,ENE,76,1.0,5.0,84,0.00,,,0.00,Wunderground v.1.15,2013-01-10 14:40:00,
2013-01-10 08:45:00,32.6,28.6,30.30,ENE,78,2.0,4.0,85,0.00,,,0.00,Wunderground v.1.15,2013-01-10 14:45:00,
2013-01-10 08:50:00,32.6,28.6,30.31,East,82,1.0,5.0,85,0.00,,,0.00,Wunderground v.1.15,2013-01-10 14:50:00,
2013-01-10 08:55:00,32.6,28.6,30.30,East,82,2.0,6.0,85,0.00,,,0.00,Wunderground v.1.15,2013-01-10 14:55:00,
2013-01-10 09:00:00,32.7,28.7,30.30,East,97,4.0,4.0,85,0.00,,,0.00,Wunderground v.1.15,2013-01-10 15:00:00,
2013-01-10 09:05:00,32.8,28.8,30.30,East,96,2.0,5.0,85,0.00,,,0.00,Wunderground v.1.15,2013-01-10 15:05:00,
2013-01-10 09:10:00,33.0,29.0,30.29,East,88,3.0,4.0,85,0.00,,,0.00,Wunderground v.1.15,2013-01-10 15:10:00,
2013-01-10 09:15:00,33.2,28.9,30.30,East,82,1.0,3.0,84,0.00,,,0.00,Wunderground v.1.15,2013-01-10 15:15:00,
2013-01-10 09:20:00,33.3,29.0,30.30,East,83,2.0,3.0,84,0.00,,,0.00,Wunderground v.1.15,2013-01-10 15:20:00,
2013-01-10 09:25:00,33.4,29.1,30.29,East,79,2.0,4.0,84,0.00,,,0.00,Wunderground v.1.15,2013-01-10 15:25:00,
2013-01-10 09:30:00,33.5,29.2,30.29,East,80,2.0,4.0,84,0.00,,,0.00,Wunderground v.1.15,2013-01-10 15:30:00,
2013-01-10 09:35:00,33.6,29.3,30.29,East,80,3.0,4.0,84,0.00,,,0.00,Wunderground v.1.15,2013-01-10 15:35:00,
2013-01-10 09:40:00,33.7,29.4,30.29,ESE,104,2.0,4.0,84,0.00,,,0.00,Wunderground v.1.15,2013-01-10 15:40:00,
2013-01-10 09:54:00,34.2,29.6,30.27,ENE,77,3.0,3.0,83,0.00,,,0.00,Wunderground v.1.15,2013-01-10 15:54:00,
2013-01-10 09:59:00,34.5,29.6,30.27,East,90,5.0,5.0,82,0.00,,,0.00,Wunderground v.1.15,2013-01-10 15:59:00,
2013-01-10 10:04:00,34.8,29.9,30.27,ENE,77,2.0,5.0,82,0.00,,,0.00,Wunderground v.1.15,2013-01-10 16:04:00,
2013-01-10 10:09:00,35.1,29.9,30.26,East,87,0.0,3.0,81,0.00,,,0.00,Wunderground v.1.15,2013-01-10 16:09:00,
2013-01-10 10:14:00,35.6,30.0,30.26,ESE,118,2.0,5.0,80,0.00,,,0.00,Wunderground v.1.15,2013-01-10 16:14:00,
2013-01-10 10:19:00,36.1,29.9,30.26,ESE,109,2.0,5.0,78,0.00,,,0.00,Wunderground v.1.15,2013-01-10 16:19:00,
2013-01-10 10:24:00,36.5,30.3,30.25,East,90,1.0,5.0,78,0.00,,,0.00,Wunderground v.1.15,2013-01-10 16:24:00,
2013-01-10 10:29:00,36.7,30.2,30.24,East,92,4.0,5.0,77,0.00,,,0.00,Wunderground v.1.15,2013-01-10 16:29:00,
2013-01-10 10:34:00,36.7,29.5,30.24,East,82,3.0,5.0,75,0.00,,,0.00,Wunderground v.1.15,2013-01-10 16:34:00,
2013-01-10 10:39:00,36.6,29.4,30.24,East,92,2.0,5.0,75,0.00,,,0.00,Wunderground v.1.15,2013-01-10 16:39:00,
2013-01-10 10:44:00,36.5,29.7,30.23,East,101,1.0,5.0,76,0.00,,,0.00,Wunderground v.1.15,2013-01-10 16:44:00,
2013-01-10 10:49:00,36.4,29.6,30.22,East,84,1.0,5.0,76,0.00,,,0.00,Wunderground v.1.15,2013-01-10 16:49:00,
2013-01-10 10:54:00,36.2,29.4,30.22,East,88,2.0,5.0,76,0.00,,,0.00,Wunderground v.1.15,2013-01-10 16:54:00,
2013-01-10 10:59:00,36.2,29.4,30.21,ENE,76,2.0,5.0,76,0.00,,,0.00,Wunderground v.1.15,2013-01-10 16:59:00,
2013-01-10 11:04:00,36.1,29.3,30.20,ESE,109,4.0,4.0,76,0.00,,,0.00,Wunderground v.1.15,2013-01-10 17:04:00,
2013-01-10 11:09:00,36.0,29.5,30.21,ESE,111,2.0,3.0,77,0.00,,,0.00,Wunderground v.1.15,2013-01-10 17:09:00,
2013-01-10 11:14:00,36.1,29.6,30.20,ENE,78,2.0,4.0,77,0.00,,,0.00,Wunderground v.1.15,2013-01-10 17:14:00,
2013-01-10 11:19:00,36.3,29.8,30.20,ENE,78,4.0,4.0,77,0.00,,,0.00,Wunderground v.1.15,2013-01-10 17:19:00,
2013-01-10 11:24:00,36.5,30.0,30.19,ENE,68,2.0,5.0,77,0.00,,,0.00,Wunderground v.1.15,2013-01-10 17:24:00,
2013-01-10 11:29:00,36.7,29.8,30.18,East,80,3.0,5.0,76,0.00,,,0.00,Wunderground v.1.15,2013-01-10 17:29:00,
2013-01-10 11:34:00,36.8,29.6,30.18,East,83,1.0,4.0,75,0.00,,,0.00,Wunderground v.1.15,2013-01-10 17:34:00,
2013-01-10 11:39:00,36.9,29.7,30.18,East,94,2.0,6.0,75,0.00,,,0.00,Wunderground v.1.15,2013-01-10 17:39:00,
2013-01-10 11:44:00,37.0,30.1,30.17,East,80,2.0,2.0,76,0.00,,,0.00,Wunderground v.1.15,2013-01-10 17:44:00,
2013-01-10 11:49:00,37.1,29.9,30.16,East,86,1.0,7.0,75,0.00,,,0.00,Wunderground v.1.15,2013-01-10 17:49:00,
2013-01-10 12:04:00,37.4,30.5,30.14,ENE,76,2.0,2.0,76,0.00,,,0.00,Wunderground v.1.15,2013-01-10 18:04:00,
2013-01-10 12:09:00,37.4,30.5,30.13,East,87,4.0,4.0,76,0.00,,,0.00,Wunderground v.1.15,2013-01-10 18:09:00,
2013-01-10 12:14:00,37.6,30.4,30.13,East,84,4.0,5.0,75,0.00,,,0.00,Wunderground v.1.15,2013-01-10 18:14:00,
2013-01-10 12:19:00,37.7,30.2,30.12,ESE,107,2.0,6.0,74,0.00,,,0.00,Wunderground v.1.15,2013-01-10 18:19:00,
2013-01-10 12:24:00,38.3,30.7,30.11,East,80,4.0,5.0,74,0.00,,,0.00,Wunderground v.1.15,2013-01-10 18:24:00,
2013-01-10 12:29:00,38.6,30.7,30.11,East,96,4.0,6.0,73,0.00,,,0.00,Wunderground v.1.15,2013-01-10 18:29:00,
2013-01-10 12:34:00,38.6,30.4,30.10,ENE,71,3.0,5.0,72,0.00,,,0.00,Wunderground v.1.15,2013-01-10 18:34:00,
2013-01-10 12:39:00,38.5,30.3,30.09,ENE,76,2.0,5.0,72,0.00,,,0.00,Wunderground v.1.15,2013-01-10 18:39:00,
2013-01-10 12:44:00,38.4,30.2,30.09,East,84,5.0,5.0,72,0.00,,,0.00,Wunderground v.1.15,2013-01-10 18:44:00,
2013-01-10 12:49:00,38.4,30.2,30.08,East,88,2.0,6.0,72,0.00,,,0.00,Wunderground v.1.15,2013-01-10 18:49:00,
2013-01-10 12:54:00,38.4,30.2,30.09,East,86,4.0,5.0,72,0.00,,,0.00,Wunderground v.1.15,2013-01-10 18:54:00,
2013-01-10 12:59:00,38.4,30.2,30.09,ENE,78,3.0,6.0,72,0.00,,,0.00,Wunderground v.1.15,2013-01-10 18:59:00,
2013-01-10 13:04:00,38.4,30.2,30.08,East,99,4.0,6.0,72,0.00,,,0.00,Wunderground v.1.15,2013-01-10 19:04:00,
2013-01-10 13:09:00,38.4,30.2,30.08,East,86,4.0,4.0,72,0.00,,,0.00,Wunderground v.1.15,2013-01-10 19:09:00,
2013-01-10 13:14:00,38.3,30.1,30.07,East,84,2.0,5.0,72,0.00,,,0.00,Wunderground v.1.15,2013-01-10 19:14:00,
2013-01-10 13:24:00,38.0,29.8,30.06,East,85,3.0,3.0,72,0.00,,,0.00,Wunderground v.1.15,2013-01-10 19:24:00,
2013-01-10 13:29:00,38.0,29.8,30.06,East,95,7.0,8.0,72,0.00,,,0.00,Wunderground v.1.15,2013-01-10 19:29:00,
2013-01-10 13:34:00,38.0,30.1,30.06,East,91,4.0,4.0,73,0.00,,,0.00,Wunderground v.1.15,2013-01-10 19:34:00,
2013-01-10 13:39:00,37.9,30.0,30.06,East,90,4.0,6.0,73,0.00,,,0.00,Wunderground v.1.15,2013-01-10 19:39:00,
2013-01-10 13:44:00,37.8,30.3,30.06,East,82,1.0,3.0,74,0.00,,,0.00,Wunderground v.1.15,2013-01-10 19:44:00,
2013-01-10 13:49:00,37.7,30.2,30.05,East,82,3.0,6.0,74,0.00,,,0.00,Wunderground v.1.15,2013-01-10 19:49:00,
2013-01-10 13:54:00,37.7,30.2,30.05,East,82,2.0,3.0,74,0.00,,,0.00,Wunderground v.1.15,2013-01-10 19:54:00,
2013-01-10 13:59:00,37.6,30.4,30.04,ENE,63,1.0,6.0,75,0.00,,,0.00,Wunderground v.1.15,2013-01-10 19:59:00,
2013-01-10 14:04:00,37.6,30.4,30.04,ENE,75,2.0,5.0,75,0.00,,,0.00,Wunderground v.1.15,2013-01-10 20:04:00,
2013-01-10 14:09:00,37.5,30.3,30.04,ENE,78,3.0,4.0,75,0.00,,,0.00,Wunderground v.1.15,2013-01-10 20:09:00,
2013-01-10 14:14:00,37.4,30.5,30.03,East,83,3.0,4.0,76,0.00,,,0.00,Wunderground v.1.15,2013-01-10 20:14:00,
2013-01-10 14:19:00,37.4,30.5,30.03,ENE,60,5.0,5.0,76,0.00,,,0.00,Wunderground v.1.15,2013-01-10 20:19:00,
2013-01-10 14:24:00,37.3,30.4,30.02,ENE,67,5.0,5.0,76,0.00,,,0.00,Wunderground v.1.15,2013-01-10 20:24:00,
2013-01-10 14:29:00,37.3,30.4,30.02,East,85,4.0,5.0,76,0.00,,,0.00,Wunderground v.1.15,2013-01-10 20:29:00,
2013-01-10 14:34:00,37.2,30.0,30.01,East,90,6.0,8.0,75,0.00,,,0.00,Wunderground v.1.15,2013-01-10 20:34:00,
2013-01-10 14:39:00,37.2,30.0,30.01,ESE,107,4.0,8.0,75,0.00,,,0.00,Wunderground v.1.15,2013-01-10 20:39:00,
2013-01-10 14:44:00,37.2,30.0,30.01,ESE,102,4.0,7.0,75,0.00,,,0.00,Wunderground v.1.15,2013-01-10 20:44:00,
2013-01-10 14:49:00,37.2,30.3,30.01,ENE,71,4.0,7.0,76,0.00,,,0.00,Wunderground v.1.15,2013-01-10 20:49:00,
2013-01-10 14:54:00,37.1,30.6,30.01,ENE,74,3.0,6.0,77,0.00,,,0.00,Wunderground v.1.15,2013-01-10 20:54:00,
2013-01-10 15:00:00,37.1,30.6,30.01,East,82,1.0,3.0,77,0.00,,,0.00,Wunderground v.1.15,2013-01-10 21:00:00,
2013-01-10 15:05:00,37.0,30.5,30.01,East,96,2.0,4.0,77,0.00,,,0.00,Wunderground v.1.15,2013-01-10 21:05:00,
2013-01-10 15:10:00,37.0,31.1,30.03,NE,46,3.0,4.0,79,0.00,,,0.00,Wunderground v.1.15,2013-01-10 21:10:00,
2013-01-10 15:15:00,36.8,31.5,30.03,ESE,123,2.0,3.0,81,0.00,,,0.00,Wunderground v.1.15,2013-01-10 21:15:00,
2013-01-10 15:20:00,36.6,31.6,30.02,ESE,104,1.0,5.0,82,0.00,,,0.00,Wunderground v.1.15,2013-01-10 21:20:00,
2013-01-10 15:25:00,36.2,31.8,30.01,East,80,2.0,6.0,84,0.00,,,0.00,Wunderground v.1.15,2013-01-10 21:25:00,
2013-01-10 15:30:00,35.8,32.0,30.00,ENE,63,6.0,8.0,86,0.00,,,0.01,Wunderground v.1.15,2013-01-10 21:30:00,
2013-01-10 15:35:00,35.3,32.1,30.00,East,82,4.0,7.0,88,0.00,,,0.01,Wunderground v.1.15,2013-01-10 21:35:00,
2013-01-10 15:40:00,35.0,32.1,29.99,East,83,3.0,7.0,89,0.00,,,0.01,Wunderground v.1.15,2013-01-10 21:40:00,
2013-01-10 15:45:00,34.7,32.1,29.99,East,79,2.0,7.0,90,0.00,,,0.01,Wunderground v.1.15,2013-01-10 21:45:00,
2013-01-10 15:50:00,34.6,32.0,29.99,SE,133,4.0,7.0,90,0.00,,,0.01,Wunderground v.1.15,2013-01-10 21:50:00,
2013-01-10 15:55:00,34.5,32.1,29.98,ENE,67,2.0,5.0,91,0.00,,,0.01,Wunderground v.1.15,2013-01-10 21:55:00,
2013-01-10 16:00:00,34.4,32.3,29.98,East,94,2.0,5.0,92,0.00,,,0.02,Wunderground v.1.15,2013-01-10 22:00:00,
2013-01-10 16:05:00,34.4,32.3,29.98,East,94,4.0,4.0,92,0.08,,,0.03,Wunderground v.1.15,2013-01-10 22:05:00,
2013-01-10 16:10:00,34.3,32.2,29.99,ESE,121,1.0,3.0,92,0.09,,,0.04,Wunderground v.1.15,2013-01-10 22:10:00,
2013-01-10 16:15:00,34.3,32.5,29.98,SE,134,2.0,5.0,93,0.09,,,0.04,Wunderground v.1.15,2013-01-10 22:15:00,
2013-01-10 16:20:00,34.3,32.5,29.98,ENE,57,2.0,6.0,93,0.09,,,0.05,Wunderground v.1.15,2013-01-10 22:20:00,
2013-01-10 16:25:00,34.3,32.5,29.98,ENE,57,2.0,4.0,93,0.12,,,0.06,Wunderground v.1.15,2013-01-10 22:25:00,
2013-01-10 16:30:00,34.2,32.4,29.97,East,82,2.0,4.0,93,0.11,,,0.07,Wunderground v.1.15,2013-01-10 22:30:00,
2013-01-10 16:35:00,34.2,32.4,29.96,East,86,5.0,5.0,93,0.06,,,0.07,Wunderground v.1.15,2013-01-10 22:35:00,
2013-01-10 16:40:00,34.2,32.7,29.97,East,82,2.0,6.0,94,0.04,,,0.07,Wunderground v.1.15,2013-01-10 22:40:00,
2013-01-10 16:45:00,34.1,32.6,29.97,East,101,5.0,6.0,94,0.00,,,0.07,Wunderground v.1.15,2013-01-10 22:45:00,
2013-01-10 16:50:00,34.1,32.6,29.96,ESE,109,1.0,6.0,94,0.00,,,0.07,Wunderground v.1.15,2013-01-10 22:50:00,
2013-01-10 16:55:00,34.1,32.6,29.96,ENE,76,1.0,4.0,94,0.00,,,0.07,Wunderground v.1.15,2013-01-10 22:55:00,
2013-01-10 17:00:00,34.1,32.6,29.95,South,178,1.0,2.0,94,0.00,,,0.07,Wunderground v.1.15,2013-01-10 23:00:00,
2013-01-10 17:05:00,34.2,32.9,29.95,ENE,59,1.0,4.0,95,0.00,,,0.07,Wunderground v.1.15,2013-01-10 23:05:00,
2013-01-10 17:10:00,34.2,32.9,29.95,NE,36,3.0,3.0,95,0.00,,,0.08,Wunderground v.1.15,2013-01-10 23:10:00,
2013-01-10 17:15:00,34.2,32.9,29.95,NE,51,2.0,3.0,95,0.00,,,0.08,Wunderground v.1.15,2013-01-10 23:15:00,
2013-01-10 17:20:00,34.3,33.0,29.95,East,96,2.0,5.0,95,0.00,,,0.08,Wunderground v.1.15,2013-01-10 23:20:00,
2013-01-10 17:25:00,34.3,33.0,29.96,ENE,76,1.0,5.0,95,0.00,,,0.08,Wunderground v.1.15,2013-01-10 23:25:00,
2013-01-10 17:30:00,34.4,33.1,29.95,SW,220,1.0,5.0,95,0.00,,,0.08,Wunderground v.1.15,2013-01-10 23:30:00,
2013-01-10 17:35:00,34.4,33.1,29.95,WNW,302,1.0,4.0,95,0.00,,,0.08,Wunderground v.1.15,2013-01-10 23:35:00,
2013-01-10 17:40:00,34.5,33.2,29.95,North,360,3.0,4.0,95,0.00,,,0.09,Wunderground v.1.15,2013-01-10 23:40:00,
2013-01-10 17:45:00,34.6,33.3,29.94,NNE,28,3.0,4.0,95,0.00,,,0.09,Wunderground v.1.15,2013-01-10 23:45:00,
2013-01-10 17:50:00,34.6,33.3,29.94,North,5,2.0,4.0,95,0.00,,,0.09,Wunderground v.1.15,2013-01-10 23:50:00,
2013-01-10 17:55:00,34.8,33.8,29.93,SW,225,2.0,4.0,96,0.00,,,0.09,Wunderground v.1.15,2013-01-10 23:55:00,
2013-01-10 18:00:00,34.9,33.9,29.93,SE,146,2.0,2.0,96,0.00,,,0.09,Wunderground v.1.15,2013-01-11 00:00:00,
2013-01-10 18:06:00,34.9,33.9,29.93,SW,235,3.0,4.0,96,0.00,,,0.10,Wunderground v.1.15,2013-01-11 00:06:00,
2013-01-10 18:11:00,34.9,33.9,29.93,SW,234,1.0,2.0,96,0.00,,,0.10,Wunderground v.1.15,2013-01-11 00:11:00,
2013-01-10 18:16:00,34.8,33.8,29.93,SE,142,1.0,4.0,96,0.00,,,0.10,Wunderground v.1.15,2013-01-11 00:16:00,
2013-01-10 18:21:00,34.9,33.9,29.93,SSE,151,2.0,5.0,96,0.00,,,0.10,Wunderground v.1.15,2013-01-11 00:21:00,
2013-01-10 18:26:00,35.0,34.0,29.93,ESE,110,2.0,6.0,96,0.00,,,0.11,Wunderground v.1.15,2013-01-11 00:26:00,
2013-01-10 18:33:00,35.1,34.1,29.93,SSW,203,3.0,3.0,96,0.07,,,0.12,Wunderground v.1.15,2013-01-11 00:33:00,
2013-01-10 18:38:00,35.2,34.2,29.92,SSE,161,1.0,5.0,96,0.07,,,0.12,Wunderground v.1.15,2013-01-11 00:38:00,
2013-01-10 18:43:00,35.2,34.2,29.92,SE,143,4.0,4.0,96,0.06,,,0.12,Wunderground v.1.15,2013-01-11 00:43:00,
2013-01-10 18:48:00,35.3,34.3,29.92,SE,140,2.0,7.0,96,0.04,,,0.12,Wunderground v.1.15,2013-01-11 00:48:00,
2013-01-10 18:53:00,35.3,34.3,29.93,SSE,147,4.0,4.0,96,0.00,,,0.12,Wunderground v.1.15,2013-01-11 00:53:00,
2013-01-10 18:58:00,35.2,34.2,29.93,SE,145,5.0,7.0,96,0.00,,,0.12,Wunderground v.1.15,2013-01-11 00:58:00,
2013-01-10 19:03:00,35.1,34.1,29.93,SE,143,5.0,5.0,96,0.00,,,0.12,Wunderground v.1.15,2013-01-11 01:03:00,
2013-01-10 19:08:00,35.1,34.1,29.91,ESE,122,2.0,5.0,96,0.00,,,0.12,Wunderground v.1.15,2013-01-11 01:08:00,
2013-01-10 19:13:00,35.1,34.1,29.91,SE,126,1.0,2.0,96,0.00,,,0.12,Wunderground v.1.15,2013-01-11 01:13:00,
2013-01-10 19:18:00,35.1,34.1,29.91,SE,146,4.0,4.0,96,0.00,,,0.13,Wunderground v.1.15,2013-01-11 01:18:00,
2013-01-10 19:24:00,35.2,34.2,29.90,SSE,156,1.0,2.0,96,0.00,,,0.13,Wunderground v.1.15,2013-01-11 01:24:00,
2013-01-10 19:29:00,35.2,34.2,29.89,SE,128,2.0,5.0,96,0.05,,,0.14,Wunderground v.1.15,2013-01-11 01:29:00,
2013-01-10 19:34:00,35.2,34.2,29.90,SE,132,2.0,5.0,96,0.05,,,0.14,Wunderground v.1.15,2013-01-11 01:34:00,
2013-01-10 19:44:00,35.2,34.2,29.89,South,183,1.0,1.0,96,0.04,,,0.14,Wunderground v.1.15,2013-01-11 01:44:00,
2013-01-10 19:49:00,35.2,34.2,29.89,SE,125,4.0,4.0,96,0.00,,,0.15,Wunderground v.1.15,2013-01-11 01:49:00,
2013-01-10 19:54:00,35.2,34.2,29.89,SSE,159,1.0,2.0,96,0.00,,,0.15,Wunderground v.1.15,2013-01-11 01:54:00,
2013-01-10 19:59:00,35.2,34.2,29.88,SE,128,0.0,4.0,96,0.08,,,0.16,Wunderground v.1.15,2013-01-11 01:59:00,
2013-01-10 20:04:00,35.2,34.2,29.88,ESE,115,1.0,4.0,96,0.07,,,0.16,Wunderground v.1.15,2013-01-11 02:04:00,
2013-01-10 20:09:00,35.3,34.5,29.87,ESE,111,1.0,1.0,97,0.04,,,0.16,Wunderground v.1.15,2013-01-11 02:09:00,
2013-01-10 20:14:00,35.3,34.5,29.87,ESE,105,0.0,2.0,97,0.00,,,0.16,Wunderground v.1.15,2013-01-11 02:14:00,
2013-01-10 20:19:00,35.3,34.5,29.87,SE,125,2.0,4.0,97,0.00,,,0.17,Wunderground v.1.15,2013-01-11 02:19:00,
2013-01-10 20:24:00,35.4,34.6,29.86,SE,130,2.0,2.0,97,0.00,,,0.17,Wunderground v.1.15,2013-01-11 02:24:00,
2013-01-10 20:29:00,35.3,34.5,29.85,East,93,0.0,4.0,97,0.00,,,0.17,Wunderground v.1.15,2013-01-11 02:29:00,
2013-01-10 20:34:00,35.3,34.5,29.85,ESE,106,2.0,2.0,97,0.00,,,0.17,Wunderground v.1.15,2013-01-11 02:34:00,
2013-01-10 20:39:00,35.3,34.5,29.85,East,91,1.0,4.0,97,0.00,,,0.17,Wunderground v.1.15,2013-01-11 02:39:00,
2013-01-10 20:44:00,35.4,34.6,29.85,East,92,1.0,2.0,97,0.00,,,0.17,Wunderground v.1.15,2013-01-11 02:44:00,
2013-01-10 20:49:00,35.3,34.5,29.84,East,89,0.0,3.0,97,0.00,,,0.17,Wunderground v.1.15,2013-01-11 02:49:00,
2013-01-10 20:54:00,35.3,34.5,29.85,East,101,1.0,4.0,97,0.00,,,0.17,Wunderground v.1.15,2013-01-11 02:54:00,
2013-01-10 20:59:00,35.3,34.5,29.84,East,87,1.0,6.0,97,0.00,,,0.17,Wunderground v.1.15,2013-01-11 02:59:00,
2013-01-10 21:04:00,35.3,34.5,29.84,East,97,2.0,5.0,97,0.00,,,0.17,Wunderground v.1.15,2013-01-11 03:04:00,
2013-01-10 21:09:00,35.4,34.6,29.83,WNW,300,2.0,2.0,97,0.00,,,0.17,Wunderground v.1.15,2013-01-11 03:09:00,
2013-01-10 21:15:00,35.5,34.7,29.82,WNW,297,1.0,3.0,97,0.00,,,0.17,Wunderground v.1.15,2013-01-11 03:15:00,
2013-01-10 21:20:00,35.5,34.7,29.81,East,81,2.0,6.0,97,0.00,,,0.17,Wunderground v.1.15,2013-01-11 03:20:00,
2013-01-10 21:25:00,35.6,34.8,29.82,NE,45,1.0,4.0,97,0.00,,,0.17,Wunderground v.1.15,2013-01-11 03:25:00,
2013-01-10 21:30:00,35.7,34.9,29.81,South,186,1.0,5.0,97,0.00,,,0.17,Wunderground v.1.15,2013-01-11 03:30:00,
2013-01-10 21:35:00,35.7,34.9,29.82,ESE,111,4.0,4.0,97,0.00,,,0.17,Wunderground v.1.15,2013-01-11 03:35:00,
2013-01-10 21:40:00,35.8,35.0,29.82,ESE,105,0.0,6.0,97,0.00,,,0.17,Wunderground v.1.15,2013-01-11 03:40:00,
2013-01-10 21:45:00,35.9,35.1,29.82,SSE,161,5.0,6.0,97,0.00,,,0.17,Wunderground v.1.15,2013-01-11 03:45:00,
2013-01-10 21:50:00,35.9,35.1,29.82,SE,139,2.0,8.0,97,0.00,,,0.17,Wunderground v.1.15,2013-01-11 03:50:00,
2013-01-10 21:55:00,35.9,35.1,29.82,SSE,155,4.0,8.0,97,0.00,,,0.18,Wunderground v.1.15,2013-01-11 03:55:00,
2013-01-10 22:00:00,35.9,35.1,29.81,ESE,104,2.0,4.0,97,0.00,,,0.18,Wunderground v.1.15,2013-01-11 04:00:00,
2013-01-10 22:05:00,35.9,35.1,29.81,ESE,115,2.0,7.0,97,0.00,,,0.18,Wunderground v.1.15,2013-01-11 04:05:00,
2013-01-10 22:10:00,35.8,35.0,29.80,SE,145,4.0,6.0,97,0.00,,,0.18,Wunderground v.1.15,2013-01-11 04:10:00,
2013-01-10 22:15:00,35.9,35.1,29.80,SE,130,2.0,5.0,97,0.00,,,0.18,Wunderground v.1.15,2013-01-11 04:15:00,
2013-01-10 22:20:00,35.9,35.1,29.80,SE,130,5.0,6.0,97,0.00,,,0.18,Wunderground v.1.15,2013-01-11 04:20:00,
2013-01-10 22:26:00,35.9,35.1,29.80,SE,146,2.0,5.0,97,0.00,,,0.18,Wunderground v.1.15,2013-01-11 04:26:00,
2013-01-10 22:31:00,35.9,35.1,29.80,SE,144,4.0,7.0,97,0.00,,,0.18,Wunderground v.1.15,2013-01-11 04:31:00,
2013-01-10 22:36:00,35.8,35.0,29.80,SSE,147,4.0,6.0,97,0.00,,,0.18,Wunderground v.1.15,2013-01-11 04:36:00,
2013-01-10 22:42:00,35.8,35.0,29.80,East,90,5.0,5.0,97,0.00,,,0.18,Wunderground v.1.15,2013-01-11 04:42:00,
2013-01-10 23:18:00,35.7,34.9,29.77,ESE,117,0.0,0.0,97,0.00,,,0.18,Wunderground v.1.15,2013-01-11 05:18:00,
2013-01-10 23:20:00,35.7,34.9,29.77,ESE,117,0.0,0.0,97,0.00,,,0.18,Wunderground v.1.15,2013-01-11 05:20:00,
2013-01-10 23:25:00,35.7,34.9,29.77,SE,132,1.0,2.0,97,0.00,,,0.18,Wunderground v.1.15,2013-01-11 05:25:00,
2013-01-10 23:32:00,35.7,34.9,29.76,ESE,109,1.0,1.0,97,0.00,,,0.18,Wunderground v.1.15,2013-01-11 05:32:00,
2013-01-10 23:37:00,35.8,35.0,29.75,ESE,109,1.0,2.0,97,0.00,,,0.18,Wunderground v.1.15,2013-01-11 05:37:00,
2013-01-10 23:42:00,35.9,35.1,29.74,ESE,121,0.0,1.0,97,0.00,,,0.18,Wunderground v.1.15,2013-01-11 05:42:00,
2013-01-10 23:47:00,35.9,35.1,29.74,SE,145,2.0,4.0,97,0.00,,,0.18,Wunderground v.1.15,2013-01-11 05:47:00,
2013-01-10 23:52:00,36.0,35.2,29.74,East,97,1.0,2.0,97,0.00,,,0.18,Wunderground v.1.15,2013-01-11 05:52:00,